Amsterdam Airport Schiphol

EHAM · North Holland, Netherlands

METAR history EHAM · Amsterdam Airport Schiphol

Below you see METARs of the last few days. Select a year to browse through older METARs, from the year 2007 onwards.

February 22, 2024

Time Code Weather Temp. Visibility Ceiling Wind METAR/SPECI
13:55
M
11 °C 10 km+ 1,000 ft 160° 160° 13 kt METAR EHAM 221255Z 16013KT 9999 FEW007 BKN010 11/11 Q0982 BECMG BKN008
13:25
M
12 °C 10 km+ 1,000 ft 150° 150° 14 kt METAR EHAM 221225Z 15014KT 9999 FEW008 BKN010 12/10 Q0983 BECMG BKN008
12:55
M
12 °C 10 km+ 1,200 ft 160° 160° 15 kt METAR EHAM 221155Z 16015KT 9999 FEW010 BKN012 BKN022 12/10 Q0985 BECMG BKN008
12:25
M
11 °C 10 km+ 1,200 ft 160° 160° 14 kt METAR EHAM 221125Z 16014KT 9999 BKN012 11/10 Q0986 NOSIG
11:55
V
11 °C 10 km+ - 160° 160° 15 kt METAR EHAM 221055Z 16015KT 9999 SCT012 11/09 Q0987 BECMG BKN012
11:25
V
11 °C 10 km+ - 170° 170° 15 kt METAR EHAM 221025Z 17015KT 9999 FEW009 SCT012 11/09 Q0988 BECMG BKN008
10:55
V
11 °C 10 km+ - 170° 170° 12 kt METAR EHAM 220955Z 17012KT 150V210 9999 FEW007 SCT009 11/10 Q0989 NOSIG
10:25
M
10 °C 10 km+ 1,400 ft 170° 170° 12 kt METAR EHAM 220925Z 17012KT 9999 FEW007 BKN014 10/09 Q0989 BECMG SCT015
09:55
M
10 °C 10 km+ 1,500 ft 170° 170° 10 kt METAR EHAM 220855Z 17010KT 140V200 9999 FEW007 SCT009 BKN015 10/09 Q0990 TEMPO BKN012
09:25
M
10 °C 10 km+ 1,600 ft 180° 180° 11 kt METAR EHAM 220825Z 18011KT 9999 FEW008 SCT010 BKN016 10/09 Q0991 TEMPO BKN012
08:55
M
10 °C 10 km+ 1,600 ft 190° 190° 11 kt METAR EHAM 220755Z 19011KT 9999 FEW008 BKN016 10/09 Q0991 TEMPO BKN012
08:25
M
10 °C 10 km+ 1,600 ft 200° 200° 12 kt METAR EHAM 220725Z 20012KT 170V230 9999 FEW007 BKN016 10/09 Q0992 NOSIG
07:55
M
9 °C 8 km 1,600 ft 200° 200° 11 kt METAR EHAM 220655Z 20011KT 8000 FEW006 SCT010 BKN016 09/09 Q0992 TEMPO BKN010
07:25
V
9 °C 10 km+ 3,200 ft 200° 200° 10 kt METAR EHAM 220625Z 20010KT 9999 FEW008 BKN032 09/08 Q0993 NOSIG
06:55
M
9 °C 10 km+ 2,700 ft 210° 210° 9 kt METAR EHAM 220555Z 21009KT 9999 FEW009 BKN027 09/08 Q0993 NOSIG
06:25
V
10 °C 10 km+ - 220° 220° 10 kt METAR EHAM 220525Z 22010KT 9999 FEW007 SCT012 10/09 Q0994 NOSIG
05:55
M
10 °C 10 km+ 1,200 ft 220° 220° 9 kt METAR EHAM 220455Z 22009KT 9999 FEW007 BKN012 10/09 Q0994 NOSIG
05:25
M
10 °C 10 km+ 1,100 ft 210° 210° 10 kt METAR EHAM 220425Z 21010KT 9999 FEW007 BKN011 10/09 Q0994 NOSIG
04:55
V
10 °C 10 km+ - 230° 230° 11 kt METAR EHAM 220355Z 23011KT 9999 FEW008 SCT028 10/09 Q0995 BECMG BKN012
04:25
M
10 °C 10 km+ 2,600 ft 230° 230° 13 kt METAR EHAM 220325Z 23013KT 9999 FEW006 SCT009 BKN026 10/09 Q0995 BECMG BKN012
03:55
I
10 °C 10 km+ 700 ft 240° 240° 14 kt METAR EHAM 220255Z 24014KT 9999 -DZ FEW005 BKN007 BKN019 10/10 Q0995 NOSIG
03:25
M
10 °C 8 km 1,900 ft 240° 240° 14 kt METAR EHAM 220225Z 24014KT 8000 -DZ FEW004 SCT007 BKN019 10/10 Q0995 NOSIG
02:55
I
11 °C 5 km 600 ft 240° 240° 15 kt METAR EHAM 220155Z 24015KT 5000 -DZ SCT004 BKN006 11/10 Q0996 NOSIG
02:25
I
11 °C 3.5 km 600 ft 240° 240° 13 kt METAR EHAM 220125Z 24013KT 3500 -DZ SCT004 BKN006 11/10 Q0996 NOSIG
01:55
I
10 °C 5 km 500 ft 240° 240° 13 kt METAR EHAM 220055Z 24013KT 210V270 5000 -DZ FEW003 SCT004 BKN005 10/10 Q0996 NOSIG
00:25
I
10 °C 3 km 500 ft 230° 230° 11 kt METAR EHAM 212325Z 23011KT 3000 -DZ FEW002 SCT004 BKN005 10/10 Q0997 NOSIG

February 21, 2024

Time Code Weather Temp. Visibility Ceiling Wind METAR/SPECI
23:55
I
10 °C 3.5 km 600 ft 220° 220° 14 kt METAR EHAM 212255Z 22014KT 3500 -DZ FEW003 SCT004 BKN006 10/10 Q0997 NOSIG
23:25
I
10 °C 3.5 km 600 ft 210° 210° 14 kt METAR EHAM 212225Z 21014KT 3500 -DZ FEW003 SCT004 BKN006 10/10 Q0997 NOSIG
22:55
L
10 °C 3 km 400 ft 210° 210° 15 kt METAR EHAM 212155Z 21015KT 3000 -DZ FEW003 BKN004 BKN006 10/10 Q0998 TEMPO BKN006
22:25
I
10 °C 2.8 km 500 ft 210° 210° 16 kt METAR EHAM 212125Z 21016KT 180V240 2800 -DZ SCT004 BKN005 BKN008 10/09 Q0998 TEMPO BKN004
21:55
I
10 °C 2.8 km 500 ft 210° 210° 16 kt METAR EHAM 212055Z 21016KT 170V230 2800 -DZ FEW004 BKN005 BKN008 10/09 Q0998 REDZ BECMG 3500 TEMPO BKN004
21:25
I
9 °C 2.8 km 600 ft 200° 200° 19 kt METAR EHAM 212025Z 20019KT 170V230 2800 DZ FEW005 BKN006 BKN010 09/09 Q0999 BECMG 3500 -DZ
20:55
I
9 °C 3.5 km 700 ft 200° 200° 18 kt METAR EHAM 211955Z 20018KT 3500 -DZRA FEW005 BKN007 BKN010 09/09 Q0999 NOSIG
20:25
I
9 °C 5 km 700 ft 190° 190° 19 kt METAR EHAM 211925Z 19019KT 5000 -DZRA FEW006 BKN007 BKN010 09/09 Q1000 TEMPO 4000
19:55
I
9 °C 5 km 900 ft 190° 190° 19 kt METAR EHAM 211855Z 19019KT 5000 -DZRA FEW006 SCT007 BKN009 09/09 Q1000 TEMPO BKN011
19:25
M
9 °C 7 km 1,200 ft 190° 190° 17 kt METAR EHAM 211825Z 19017KT 7000 -RADZ FEW008 SCT010 BKN012 09/08 Q1001 TEMPO 7000
18:55
M
9 °C 10 km+ 1,200 ft 190° 190° 20 kt METAR EHAM 211755Z 19020KT 9999 -RA FEW008 SCT010 BKN012 09/08 Q1001 RERADZ TEMPO 7000
18:25
M
9 °C 10 km+ 1,200 ft 180° 180° 18 kt METAR EHAM 211725Z 18018KT 9999 RA FEW008 SCT010 BKN012 09/08 Q1002 TEMPO 7000
17:55
M
9 °C 7 km 1,200 ft 180° 180° 18 kt METAR EHAM 211655Z 18018KT 150V210 7000 RADZ FEW008 SCT010 BKN012 09/08 Q1002 TEMPO 9999
17:25
M
9 °C 9 km 1,200 ft 180° 180° 17 kt METAR EHAM 211625Z 18017KT 9000 RADZ FEW008 SCT010 BKN012 09/08 Q1003 TEMPO 6000
16:55
M
9 °C 9 km 1,200 ft 170° 170° 15 kt METAR EHAM 211555Z 17015KT 140V210 9000 RADZ FEW009 BKN012 BKN016 09/08 Q1004 TEMPO 6000
16:25
M
9 °C 10 km+ 1,600 ft 170° 170° 16 kt METAR EHAM 211525Z 17016KT 9999 -RADZ FEW013 BKN016 BKN032 09/08 Q1004 TEMPO 7000 BECMG BKN012
15:55
V
9 °C 10 km+ 3,200 ft 180° 180° 15 kt METAR EHAM 211455Z 18015KT 140V220 9999 -RADZ FEW013 SCT017 BKN032 09/07 Q1005 TEMPO 7000 BKN017
15:25
V
9 °C 10 km+ 4,800 ft 180° 180° 16 kt METAR EHAM 211425Z 18016KT 9999 -RADZ FEW015 SCT017 BKN048 09/07 Q1006 TEMPO BKN017
14:55
M
10 °C 10 km+ 1,700 ft 200° 200° 20 kt METAR EHAM 211355Z 20020KT 9999 FEW015 BKN017 10/07 Q1008 TEMPO SCT017
14:25
M
10 °C 10 km+ 1,800 ft 200° 200° 18 kt METAR EHAM 211325Z 20018KT 9999 FEW015 BKN018 10/07 Q1009 NOSIG
13:55
M
10 °C 10 km+ 2,000 ft 200° 200° 17 kt METAR EHAM 211255Z 20017KT 9999 FEW015 BKN020 10/07 Q1009 NOSIG
13:25
M
10 °C 10 km+ 2,000 ft 190° 190° 15 kt METAR EHAM 211225Z 19015KT 9999 FEW015 BKN020 10/07 Q1010 NOSIG
12:55
M
10 °C 10 km+ 1,900 ft 190° 190° 15 kt METAR EHAM 211155Z 19015KT 9999 FEW012 BKN019 10/07 Q1011 NOSIG
12:25
M
10 °C 10 km+ 1,700 ft 190° 190° 15 kt METAR EHAM 211125Z 19015KT 9999 FEW012 BKN017 10/07 Q1012 NOSIG
11:55
V
10 °C 10 km+ - 180° 180° 13 kt METAR EHAM 211055Z 18013KT 150V220 9999 FEW011 SCT015 10/07 Q1012 NOSIG
11:25
V
9 °C 10 km+ - 180° 180° 15 kt METAR EHAM 211025Z 18015KT 9999 FEW010 SCT015 09/07 Q1013 NOSIG
10:55
M
9 °C 10 km+ 3,000 ft 180° 180° 14 kt METAR EHAM 210955Z 18014KT 9999 FEW010 SCT017 BKN030 09/07 Q1014 NOSIG
10:25
M
9 °C 10 km+ 3,000 ft 180° 180° 14 kt METAR EHAM 210925Z 18014KT 150V210 9999 FEW010 SCT015 BKN030 09/07 Q1014 NOSIG
09:55
M
9 °C 10 km+ 3,000 ft 190° 190° 15 kt METAR EHAM 210855Z 19015KT 9999 FEW010 SCT017 BKN030 09/07 Q1015 NOSIG
09:25
M
9 °C 10 km+ 1,600 ft 200° 200° 13 kt METAR EHAM 210825Z 20013KT 170V230 9999 FEW011 BKN016 BKN026 09/07 Q1015 BECMG BKN022
08:55
M
9 °C 10 km+ 1,500 ft 200° 200° 13 kt METAR EHAM 210755Z 20013KT 9999 FEW010 BKN015 09/08 Q1016 NOSIG
08:25
M
9 °C 10 km+ 2,600 ft 210° 210° 13 kt METAR EHAM 210725Z 21013KT 9999 FEW010 SCT015 BKN026 09/07 Q1016 TEMPO BKN015
07:55
M
9 °C 10 km+ 2,200 ft 210° 210° 14 kt METAR EHAM 210655Z 21014KT 9999 FEW010 BKN022 09/07 Q1016 NOSIG
07:25
M
9 °C 10 km+ 1,900 ft 200° 200° 13 kt METAR EHAM 210625Z 20013KT 9999 FEW010 BKN019 09/08 Q1016 NOSIG
06:55
M
9 °C 10 km+ 1,800 ft 210° 210° 12 kt METAR EHAM 210555Z 21012KT 9999 FEW009 BKN018 09/08 Q1017 NOSIG
06:25
M
9 °C 10 km+ 1,600 ft 220° 220° 13 kt METAR EHAM 210525Z 22013KT 9999 FEW009 BKN016 09/08 Q1017 NOSIG
05:55
M
9 °C 10 km+ 1,600 ft 230° 230° 12 kt METAR EHAM 210455Z 23012KT 9999 FEW008 BKN016 09/08 Q1018 NOSIG
05:25
M
9 °C 10 km+ 1,400 ft 230° 230° 13 kt METAR EHAM 210425Z 23013KT 9999 FEW008 BKN014 09/08 Q1018 NOSIG
04:55
M
9 °C 10 km+ 1,600 ft 230° 230° 14 kt METAR EHAM 210355Z 23014KT 200V260 9999 FEW009 BKN016 09/08 Q1018 NOSIG
04:25
M
9 °C 10 km+ 1,200 ft 240° 240° 13 kt METAR EHAM 210325Z 24013KT 9999 FEW008 BKN012 09/08 Q1018 NOSIG
03:55
V
10 °C 10 km+ 3,500 ft 240° 240° 14 kt METAR EHAM 210255Z 24014KT 210V270 9999 FEW008 SCT010 BKN035 10/08 Q1019 BECMG BKN012
03:25
V
10 °C 10 km+ 3,400 ft 240° 240° 14 kt METAR EHAM 210225Z 24014KT 9999 FEW009 SCT012 BKN034 10/08 Q1019 BECMG BKN012
02:55
V
10 °C 10 km+ 3,100 ft 240° 240° 15 kt METAR EHAM 210155Z 24015KT 200V270 9999 FEW008 SCT012 BKN031 10/08 Q1019 BECMG BKN012
02:25
V
10 °C 10 km+ 3,100 ft 240° 240° 16 kt METAR EHAM 210125Z 24016KT 9999 FEW009 BKN031 10/08 Q1020 NOSIG
01:55
V
10 °C 10 km+ 3,300 ft 230° 230° 14 kt METAR EHAM 210055Z 23014KT 9999 FEW009 BKN033 10/08 Q1020 NOSIG
01:25
V
9 °C 10 km+ - 230° 230° 15 kt METAR EHAM 210025Z 23015KT 200V260 9999 FEW009 09/08 Q1020 NOSIG
00:55
V
10 °C 10 km+ - 230° 230° 15 kt METAR EHAM 202355Z 23015KT 200V260 9999 -RA FEW010 10/08 Q1020 NOSIG
00:25
V
9 °C 10 km+ - 230° 230° 17 kt METAR EHAM 202325Z 23017KT 9999 FEW010 09/08 Q1021 NOSIG

February 20, 2024

Time Code Weather Temp. Visibility Ceiling Wind METAR/SPECI
23:55
V
9 °C 10 km+ - 230° 230° 19 kt METAR EHAM 202255Z 23019KT 9999 FEW010 09/08 Q1021 NOSIG
23:25
V
9 °C 10 km+ - 230° 230° 19 - 29 kt METAR EHAM 202225Z 23019G29KT 9999 FEW009 SCT012 09/08 Q1021 NOSIG
22:55
M
10 °C 10 km+ 1,300 ft 230° 230° 20 kt METAR EHAM 202155Z 23020KT 200V260 9999 FEW009 BKN013 10/08 Q1021 NOSIG
22:25
M
10 °C 10 km+ 1,400 ft 230° 230° 21 kt METAR EHAM 202125Z 23021KT 9999 FEW009 SCT012 BKN014 10/08 Q1022 NOSIG
21:55
M
10 °C 10 km+ 1,400 ft 230° 230° 20 kt METAR EHAM 202055Z 23020KT 9999 FEW009 SCT012 BKN014 10/08 Q1022 NOSIG
21:25
M
10 °C 10 km+ 1,200 ft 230° 230° 20 kt METAR EHAM 202025Z 23020KT 200V260 9999 FEW009 BKN012 BKN015 10/08 Q1022 NOSIG
20:55
M
10 °C 10 km+ 1,100 ft 230° 230° 17 kt METAR EHAM 201955Z 23017KT 210V270 9999 FEW009 BKN011 BKN013 10/08 Q1022 NOSIG
20:25
M
10 °C 10 km+ 1,000 ft 230° 230° 18 kt METAR EHAM 201925Z 23018KT 210V270 9999 SCT008 BKN010 BKN013 10/09 Q1022 TEMPO BKN009
19:55
I
10 °C 10 km+ 900 ft 230° 230° 17 kt METAR EHAM 201855Z 23017KT 9999 FEW007 BKN009 BKN011 10/09 Q1022 TEMPO 4500
19:25
I
9 °C 10 km+ 700 ft 230° 230° 18 kt METAR EHAM 201825Z 23018KT 200V260 9999 FEW005 BKN007 BKN009 09/09 Q1023 TEMPO 4500
18:55
I
10 °C 3.5 km 700 ft 230° 230° 19 kt METAR EHAM 201755Z 23019KT 3500 -DZ FEW006 BKN007 BKN010 10/09 Q1023 BECMG 9999
18:25
I
10 °C 10 km+ 900 ft 230° 230° 18 kt METAR EHAM 201725Z 23018KT 9999 FEW007 BKN009 BKN011 10/08 Q1023 TEMPO 7000
17:55
M
10 °C 10 km+ 1,300 ft 230° 230° 16 kt METAR EHAM 201655Z 23016KT 9999 FEW009 SCT011 BKN013 10/08 Q1023 TEMPO 7000 BKN009
17:25
M
10 °C 10 km+ 1,600 ft 230° 230° 16 kt METAR EHAM 201625Z 23016KT 190V260 9999 -RADZ FEW011 BKN016 BKN018 10/07 Q1023 TEMPO 7000 BKN009
16:55
M
10 °C 10 km+ 1,700 ft 230° 230° 17 kt METAR EHAM 201555Z 23017KT 200V260 9999 FEW012 BKN017 10/07 Q1023 TEMPO BKN012
16:25
V
10 °C 10 km+ - 230° 230° 14 kt METAR EHAM 201525Z 23014KT 9999 FEW013 10/07 Q1023 TEMPO BKN012
15:55
V
10 °C 10 km+ - 230° 230° 16 kt METAR EHAM 201455Z 23016KT 9999 FEW013 10/07 Q1024 NOSIG
15:25
V
10 °C 10 km+ - 220° 220° 15 kt METAR EHAM 201425Z 22015KT 9999 FEW015 10/07 Q1023 NOSIG
14:55
V
10 °C 10 km+ - 220° 220° 17 kt METAR EHAM 201355Z 22017KT 9999 FEW017 10/07 Q1024 NOSIG
14:25
V
10 °C 10 km+ - 230° 230° 17 kt METAR EHAM 201325Z 23017KT 200V260 9999 FEW019 10/06 Q1024 NOSIG
13:55
V
11 °C 10 km+ - 230° 230° 17 kt METAR EHAM 201255Z 23017KT 200V260 9999 FEW016 11/06 Q1024 NOSIG
13:25
V
11 °C 10 km+ - 220° 220° 16 kt METAR EHAM 201225Z 22016KT CAVOK 11/06 Q1025 NOSIG
12:55
V
11 °C 10 km+ - 220° 220° 14 kt METAR EHAM 201155Z 22014KT CAVOK 11/07 Q1025 NOSIG
12:25
V
10 °C 10 km+ - 220° 220° 13 kt METAR EHAM 201125Z 22013KT 9999 FEW015 10/07 Q1026 NOSIG
11:55
V
9 °C 10 km+ - 210° 210° 11 kt METAR EHAM 201055Z 21011KT 9999 FEW008 09/08 Q1026 NOSIG
11:25
V
9 °C 10 km+ - 210° 210° 11 kt METAR EHAM 201025Z 21011KT CAVOK 09/07 Q1026 NOSIG
10:55
V
9 °C 10 km+ - 210° 210° 11 kt METAR EHAM 200955Z 21011KT CAVOK 09/07 Q1026 NOSIG
10:25
V
9 °C 10 km+ - 220° 220° 11 kt METAR EHAM 200925Z 22011KT 200V260 CAVOK 09/07 Q1027 NOSIG
09:55
V
8 °C 10 km+ - 220° 220° 11 kt METAR EHAM 200855Z 22011KT CAVOK 08/07 Q1027 NOSIG
09:25
V
8 °C 10 km+ - 220° 220° 9 kt METAR EHAM 200825Z 22009KT CAVOK 08/07 Q1027 NOSIG
08:55
V
7 °C 10 km+ - 220° 220° 8 kt METAR EHAM 200755Z 22008KT CAVOK 07/07 Q1027 NOSIG
08:25
V
7 °C 10 km+ - 230° 230° 9 kt METAR EHAM 200725Z 23009KT CAVOK 07/06 Q1027 NOSIG
07:55
V
7 °C 10 km+ - 220° 220° 7 kt METAR EHAM 200655Z 22007KT CAVOK 07/06 Q1027 NOSIG
07:25
V
7 °C 10 km+ - 240° 240° 9 kt METAR EHAM 200625Z 24009KT CAVOK 07/06 Q1027 NOSIG
06:55
V
6 °C 10 km+ - 240° 240° 6 kt METAR EHAM 200555Z 24006KT CAVOK 06/06 Q1027 NOSIG